createdAt,value
2019-05-11T00:03:20.853Z,8.51
2019-05-11T00:07:22.981Z,8.49
2019-05-11T00:11:25.244Z,8.50
2019-05-11T00:15:27.541Z,8.49
2019-05-11T00:19:30.890Z,8.47
2019-05-11T00:23:32.991Z,8.42
2019-05-11T00:27:35.165Z,8.43
2019-05-11T00:31:37.374Z,8.39
2019-05-11T00:35:39.496Z,8.43
2019-05-11T00:39:41.658Z,8.44
2019-05-11T00:43:43.934Z,8.44
2019-05-11T00:47:46.316Z,8.46
2019-05-11T00:51:48.622Z,8.46
2019-05-11T00:55:51.051Z,8.44
2019-05-11T00:59:53.297Z,8.45
2019-05-11T01:03:55.434Z,8.49
2019-05-11T01:07:58.494Z,8.49
2019-05-11T01:12:00.678Z,8.52
2019-05-11T01:16:04.572Z,8.54
2019-05-11T01:20:07.154Z,8.55
2019-05-11T01:24:09.466Z,8.55
2019-05-11T01:28:13.116Z,8.55
2019-05-11T01:32:15.432Z,8.57
2019-05-11T01:36:17.759Z,8.56
2019-05-11T01:40:20.003Z,8.57
2019-05-11T01:44:22.536Z,8.59
2019-05-11T01:48:24.655Z,8.60
2019-05-11T01:52:27.033Z,8.58
2019-05-11T01:56:29.219Z,8.60
2019-05-11T02:00:32.480Z,8.59
2019-05-11T02:04:34.630Z,8.55
2019-05-11T02:08:36.962Z,8.58
2019-05-11T02:12:39.004Z,8.59
2019-05-11T02:16:41.618Z,8.58
2019-05-11T02:20:43.860Z,8.54
2019-05-11T02:24:46.255Z,8.53
2019-05-11T02:28:48.497Z,8.52
2019-05-11T02:32:50.832Z,8.50
2019-05-11T02:36:53.104Z,8.48
2019-05-11T02:40:55.312Z,8.47
2019-05-11T02:44:57.590Z,8.44
2019-05-11T02:48:59.828Z,8.42
2019-05-11T02:53:02.386Z,8.43
2019-05-11T02:57:04.714Z,8.39
2019-05-11T03:01:06.892Z,8.31
2019-05-11T03:05:09.376Z,8.34
2019-05-11T03:09:11.523Z,8.38
2019-05-11T03:13:14.323Z,8.41
2019-05-11T03:17:20.616Z,8.38
2019-05-11T03:21:22.914Z,8.44
2019-05-11T03:25:25.354Z,8.49
2019-05-11T03:29:27.777Z,8.49
2019-05-11T03:33:30.070Z,8.45
2019-05-11T03:37:32.455Z,8.48
2019-05-11T03:41:34.656Z,8.37
2019-05-11T03:45:37.166Z,8.43
2019-05-11T03:49:39.574Z,8.35
2019-05-11T03:53:41.860Z,8.41
2019-05-11T03:57:44.020Z,8.44
2019-05-11T04:01:46.260Z,8.47
2019-05-11T04:05:49.499Z,8.51
2019-05-11T04:09:51.715Z,8.51
2019-05-11T04:13:54.055Z,8.46
2019-05-11T04:17:56.370Z,8.44
2019-05-11T04:21:58.542Z,8.44
2019-05-11T04:26:00.943Z,8.33
2019-05-11T04:30:03.020Z,8.38
2019-05-11T04:34:05.233Z,8.30
2019-05-11T04:38:07.443Z,8.37
2019-05-11T04:42:09.766Z,8.40
2019-05-11T04:46:12.033Z,8.42
2019-05-11T04:50:14.774Z,8.49
2019-05-11T04:54:17.054Z,8.61
2019-05-11T04:58:19.271Z,8.73
2019-05-11T05:02:21.853Z,8.85
2019-05-11T05:06:24.771Z,8.98
2019-05-11T05:10:27.011Z,8.93
2019-05-11T05:14:29.285Z,9.04
2019-05-11T05:18:31.922Z,8.97
2019-05-11T05:22:34.216Z,8.97
2019-05-11T05:26:36.461Z,9.03
2019-05-11T05:30:38.823Z,9.15
2019-05-11T05:34:40.922Z,9.19
2019-05-11T05:38:43.142Z,9.12
2019-05-11T05:42:45.287Z,9.25
2019-05-11T05:46:47.618Z,9.30
2019-05-11T05:50:49.725Z,9.46
2019-05-11T05:54:51.969Z,9.49
2019-05-11T05:58:54.201Z,9.45
2019-05-11T06:02:56.402Z,9.50
2019-05-11T06:06:58.482Z,9.43
2019-05-11T06:11:00.766Z,9.39
2019-05-11T06:15:04.044Z,9.49
2019-05-11T06:19:06.648Z,9.46
2019-05-11T06:23:08.897Z,9.49
2019-05-11T06:27:12.051Z,9.52
2019-05-11T06:31:14.198Z,9.65
2019-05-11T06:35:16.720Z,9.69
2019-05-11T06:39:19.179Z,9.66
2019-05-11T06:43:21.491Z,9.63
2019-05-11T06:47:23.653Z,9.69
2019-05-11T06:51:27.323Z,9.75
2019-05-11T06:55:29.664Z,9.68
2019-05-11T06:59:31.933Z,9.56
2019-05-11T07:03:34.421Z,9.55
2019-05-11T07:07:47.025Z,9.56
2019-05-11T07:11:42.548Z,9.63
2019-05-11T07:15:44.781Z,9.74
2019-05-11T07:19:47.701Z,9.88
2019-05-11T07:23:50.140Z,10.02
2019-05-11T07:27:52.631Z,10.07
2019-05-11T07:31:54.823Z,10.07
2019-05-11T07:35:58.274Z,10.08
2019-05-11T07:40:00.587Z,10.12
2019-05-11T07:44:04.182Z,10.02
2019-05-11T07:48:08.037Z,10.13
2019-05-11T07:52:10.297Z,10.42
2019-05-11T07:56:12.462Z,10.87
2019-05-11T08:00:14.742Z,11.21
2019-05-11T08:04:18.300Z,10.98
2019-05-11T08:08:20.763Z,10.90
2019-05-11T08:12:23.163Z,10.80
2019-05-11T08:16:28.235Z,10.74
2019-05-11T08:20:29.653Z,10.56
2019-05-11T08:24:32.003Z,10.84
2019-05-11T08:28:34.317Z,10.97
2019-05-11T08:32:38.705Z,10.74
2019-05-11T08:36:40.824Z,10.93
2019-05-11T08:40:43.163Z,11.16
2019-05-11T08:44:45.516Z,11.27
2019-05-11T08:48:47.994Z,11.13
2019-05-11T08:52:50.474Z,11.32
2019-05-11T08:56:53.557Z,11.44
2019-05-11T09:00:58.043Z,11.31
2019-05-11T09:04:59.642Z,11.46
2019-05-11T09:09:01.988Z,11.69
2019-05-11T09:13:04.390Z,11.92
2019-05-11T09:17:07.858Z,11.64
2019-05-11T09:21:11.413Z,11.52
2019-05-11T09:25:14.050Z,11.75
2019-05-11T09:29:17.994Z,12.06
2019-05-11T09:33:20.845Z,11.97
2019-05-11T09:37:22.997Z,12.10
2019-05-11T09:41:25.250Z,12.20
2019-05-11T09:45:27.907Z,12.16
2019-05-11T09:49:43.743Z,12.39
2019-05-11T09:53:38.666Z,12.60
2019-05-11T09:57:40.385Z,12.62
2019-05-11T10:01:42.526Z,12.80
2019-05-11T10:05:45.057Z,12.88
2019-05-11T10:09:47.875Z,12.85
2019-05-11T10:13:50.470Z,12.75
2019-05-11T10:17:52.496Z,12.70
2019-05-11T10:21:55.126Z,12.71
2019-05-11T10:25:58.590Z,12.71
2019-05-11T10:30:02.026Z,12.83
2019-05-11T10:34:05.501Z,13.05
2019-05-11T10:38:09.069Z,13.21
2019-05-11T10:42:11.586Z,12.91
2019-05-11T10:46:19.526Z,13.00
2019-05-11T10:50:18.848Z,13.29
2019-05-11T10:54:21.315Z,12.99
2019-05-11T10:58:23.481Z,12.98
2019-05-11T11:02:27.691Z,13.32
2019-05-11T11:06:29.569Z,13.22
2019-05-11T11:10:31.801Z,13.29
2019-05-11T11:14:34.131Z,12.95
2019-05-11T11:18:38.110Z,12.98
2019-05-11T11:22:44.036Z,13.14
2019-05-11T11:26:44.920Z,13.33
2019-05-11T11:30:48.018Z,12.96
2019-05-11T11:34:50.295Z,13.06
2019-05-11T11:38:52.548Z,13.10
2019-05-11T11:42:54.897Z,13.15
2019-05-11T11:46:59.105Z,13.12
2019-05-11T11:51:01.058Z,12.91
2019-05-11T11:55:03.007Z,12.93
2019-05-11T11:59:05.324Z,12.97
2019-05-11T12:03:08.144Z,13.24
2019-05-11T12:07:10.485Z,13.36
2019-05-11T12:11:12.540Z,13.54
2019-05-11T12:15:14.937Z,13.56
2019-05-11T12:19:18.697Z,13.53
2019-05-11T12:23:21.450Z,13.31
2019-05-11T12:27:23.482Z,13.06
2019-05-11T12:31:25.789Z,12.94
2019-05-11T12:35:29.362Z,12.98
2019-05-11T12:39:31.585Z,12.90
2019-05-11T12:43:33.750Z,12.75
2019-05-11T12:47:38.360Z,12.66
2019-05-11T12:51:40.978Z,12.58
2019-05-11T12:55:43.199Z,12.64
2019-05-11T12:59:45.364Z,12.70
2019-05-11T13:03:49.341Z,12.69
2019-05-11T13:07:51.583Z,12.67
2019-05-11T13:11:53.740Z,12.61
2019-05-11T13:15:55.797Z,12.47
2019-05-11T13:19:58.750Z,12.41
2019-05-11T13:24:02.348Z,12.32
2019-05-11T13:28:05.912Z,12.28
2019-05-11T13:32:10.282Z,12.29
2019-05-11T13:36:12.630Z,12.37
2019-05-11T13:40:15.403Z,12.41
2019-05-11T13:44:18.595Z,12.40
2019-05-11T13:48:21.443Z,12.26
2019-05-11T13:52:28.538Z,12.17
2019-05-11T13:56:32.389Z,12.05
2019-05-11T14:00:34.830Z,11.98
2019-05-11T14:04:38.644Z,11.88
2019-05-11T14:08:41.257Z,11.81
2019-05-11T14:12:43.835Z,11.83
2019-05-11T14:16:48.427Z,11.89
2019-05-11T14:20:52.052Z,11.87
2019-05-11T14:24:54.483Z,11.86
2019-05-11T14:28:58.290Z,11.70
2019-05-11T14:33:00.473Z,11.69
2019-05-11T14:37:02.927Z,11.62
2019-05-11T14:41:07.578Z,11.52
2019-05-11T14:45:09.326Z,11.42
2019-05-11T14:49:11.378Z,11.39
2019-05-11T14:53:13.694Z,11.28
2019-05-11T14:57:18.446Z,11.26
2019-05-11T15:01:19.945Z,11.21
2019-05-11T15:05:22.717Z,11.18
2019-05-11T15:09:24.862Z,11.11
2019-05-11T15:13:28.807Z,11.11
2019-05-11T15:17:31.133Z,11.07
2019-05-11T15:21:33.529Z,11.04
2019-05-11T15:25:37.702Z,11.01
2019-05-11T15:29:39.732Z,10.99
2019-05-11T15:33:41.945Z,10.97
2019-05-11T15:37:44.232Z,10.96
2019-05-11T15:41:47.984Z,10.92
2019-05-11T15:45:50.606Z,10.91
2019-05-11T15:49:54.538Z,10.86
2019-05-11T15:53:58.678Z,10.86
2019-05-11T15:58:01.227Z,10.83
2019-05-11T16:02:03.689Z,10.86
2019-05-11T16:06:07.873Z,10.78
2019-05-11T16:10:11.636Z,10.75
2019-05-11T16:14:15.495Z,10.69
2019-05-11T16:18:18.910Z,10.65
2019-05-11T16:22:21.410Z,10.59
2019-05-11T16:26:23.690Z,10.54
2019-05-11T16:30:25.764Z,10.59
2019-05-11T16:34:28.179Z,10.58
2019-05-11T16:38:30.800Z,10.56
2019-05-11T16:42:33.850Z,10.53
2019-05-11T16:46:40.028Z,10.55
2019-05-11T16:50:44.280Z,10.51
2019-05-11T16:54:47.804Z,10.49
2019-05-11T16:58:50.564Z,10.44
2019-05-11T17:02:57.705Z,10.42
2019-05-11T17:06:59.738Z,10.40
2019-05-11T17:11:01.964Z,10.36
2019-05-11T17:15:04.354Z,10.32
2019-05-11T17:19:07.897Z,10.30
2019-05-11T17:23:10.391Z,10.30
2019-05-11T17:27:12.564Z,10.30
2019-05-11T17:31:18.597Z,10.30
2019-05-11T17:35:23.490Z,10.30
2019-05-11T17:39:28.176Z,10.29
2019-05-11T17:43:32.087Z,10.31
2019-05-11T17:47:34.958Z,10.29
2019-05-11T17:51:38.432Z,10.27
2019-05-11T17:55:42.610Z,10.26
2019-05-11T17:59:47.697Z,10.25
2019-05-11T18:03:53.705Z,10.21
2019-05-11T18:07:57.994Z,10.19
2019-05-11T18:12:00.405Z,10.15
2019-05-11T18:16:09.694Z,10.12
2019-05-11T18:20:17.931Z,10.07
2019-05-11T18:24:28.355Z,10.05
2019-05-11T18:28:31.142Z,10.02
2019-05-11T18:32:33.260Z,10.00
2019-05-11T18:36:35.491Z,10.01
2019-05-11T18:40:38.170Z,9.98
2019-05-11T18:44:40.551Z,9.97
2019-05-11T18:48:42.704Z,9.98
2019-05-11T18:52:44.935Z,9.97
2019-05-11T18:56:48.858Z,9.95
2019-05-11T19:00:51.079Z,9.91
2019-05-11T19:04:54.103Z,9.91
2019-05-11T19:08:58.107Z,9.89
2019-05-11T19:13:00.412Z,9.84
2019-05-11T19:17:02.879Z,9.82
2019-05-11T19:21:05.571Z,9.80
2019-05-11T19:25:18.240Z,9.78
2019-05-11T19:29:21.714Z,9.76
2019-05-11T19:33:24.033Z,9.74
2019-05-11T19:37:27.860Z,9.73
2019-05-11T19:41:30.604Z,9.74
2019-05-11T19:45:32.800Z,9.75
2019-05-11T19:49:35.303Z,9.76
2019-05-11T19:53:38.610Z,9.77
2019-05-11T19:57:41.166Z,9.79
2019-05-11T20:01:44.748Z,9.78
2019-05-11T20:05:48.544Z,9.78
2019-05-11T20:09:51.987Z,9.77
2019-05-11T20:13:54.214Z,9.74
2019-05-11T20:17:58.465Z,9.73
2019-05-11T20:22:00.510Z,9.70
2019-05-11T20:26:02.952Z,9.65
2019-05-11T20:30:05.448Z,9.60
2019-05-11T20:34:07.713Z,9.58
2019-05-11T20:38:10.133Z,9.57
2019-05-11T20:42:12.184Z,9.57
2019-05-11T20:46:14.389Z,9.58
2019-05-11T20:50:18.404Z,9.59
2019-05-11T20:54:20.470Z,9.59
2019-05-11T20:58:22.633Z,9.61
2019-05-11T21:02:24.892Z,9.60
2019-05-11T21:06:29.382Z,9.61
2019-05-11T21:10:31.069Z,9.63
2019-05-11T21:14:33.451Z,9.66
2019-05-11T21:18:38.005Z,9.66
2019-05-11T21:22:40.744Z,9.66
2019-05-11T21:26:43.257Z,9.67
2019-05-11T21:30:47.925Z,9.67
2019-05-11T21:34:49.317Z,9.68
2019-05-11T21:38:51.691Z,9.70
2019-05-11T21:42:54.009Z,9.70
2019-05-11T21:46:56.158Z,9.70
2019-05-11T21:50:59.934Z,9.69
2019-05-11T21:55:02.187Z,9.67
2019-05-11T21:59:04.382Z,9.66
2019-05-11T22:03:09.988Z,9.63
2019-05-11T22:07:10.922Z,9.66
2019-05-11T22:11:14.254Z,9.66
2019-05-11T22:15:18.037Z,9.67
2019-05-11T22:19:20.232Z,9.67
2019-05-11T22:23:22.871Z,9.66
2019-05-11T22:27:24.925Z,9.67
2019-05-11T22:31:27.996Z,9.67
2019-05-11T22:35:30.395Z,9.65
2019-05-11T22:39:32.744Z,9.60
2019-05-11T22:43:34.849Z,9.59
2019-05-11T22:47:39.262Z,9.56
2019-05-11T22:51:40.950Z,9.56
2019-05-11T22:55:43.161Z,9.54
2019-05-11T22:59:45.529Z,9.54
2019-05-11T23:03:47.986Z,9.55
2019-05-11T23:07:50.172Z,9.55
2019-05-11T23:11:52.333Z,9.56
2019-05-11T23:15:54.607Z,9.54
2019-05-11T23:19:57.962Z,9.55
2019-05-11T23:24:01.244Z,9.56
2019-05-11T23:28:03.416Z,9.56
2019-05-11T23:32:05.675Z,9.59
2019-05-11T23:36:07.971Z,9.59
2019-05-11T23:40:10.428Z,9.60
2019-05-11T23:44:12.790Z,9.58
2019-05-11T23:48:15.061Z,9.56
2019-05-11T23:52:18.045Z,9.59
2019-05-11T23:56:20.444Z,9.60
